Teneriffa, Canary Islands

2. maaliskuuta 2015 klo 16:29 (WET) (GMT +0000)
s.Cristobal de La Laguna | Change Station
CLOSE
Current Station
Omat sääasemat
Location: San Cristóbal De La Laguna, CANARIAS
Korkeus: 1795 ft
Lähimmät sääasemat

Kork 1795 ft 28.48 °N, 16.31 °W | Updated 11 seconds ago

Mostly Cloudy
Pilvistä
62.1 °F
Tuntuu kuin 62.1 °F
N
3.4
Tuuli Suunnaltaan vaihteleva Tuuli ilmansuunnasta Etelän ja lounaan välinen
Gusts 4.9 mph

Tänään
Korkea -- | Matala -- °F
--% Sateen mahd.
Eilen
Korkea -- | Matala -- °F
Precip. -- tuumaa
7:29 AM 7:05 PM
Kasvava kupera kuu, 92% visible
Ilmanpaine 30.24 tuumaa
Näkyvyys 6.2 mailia
Pilviä Harvoja pilviä 1200 ft
Pilvistä 1600 ft
Kastepiste 49 °F
Ilmankosteus 61%
Sademäärä 0.00 tuumaa
Lumensyvyys Ei saatavilla
UV 2.0 / 12
Pollen Ei saatavilla
Ilmanlaatu Ei saatavilla
Flu Activity Ei saatavilla
METAR GCXO 021600Z 14006KT 080V190 9999 FEW012 BKN016 14/11 Q1024 NOSIG

More Conditions Fewer Conditions

Ilmanpaine 30.24 tuumaa
Näkyvyys 6.2 mailia
Pilviä Harvoja pilviä 1200 ft
Pilvistä 1600 ft
Kastepiste 49 °F
Ilmankosteus 61%
Sademäärä 0.00 tuumaa
Lumensyvyys Ei saatavilla
UV 2.0 / 12
Pollen Ei saatavilla
Ilmanlaatu Ei saatavilla
Flu Activity Ei saatavilla
METAR GCXO 021600Z 14006KT 080V190 9999 FEW012 BKN016 14/11 Q1024 NOSIG

More Conditions Fewer Conditions

10-Day Weather Forecast

Almanac

Tähtitiede

Mar. 02, 2015 Nousuaika Laskuaika
Valoisa aika
Porvarillinen hämärä
Nauttinen hämärä
Astronominen hämärä
Kuu
Näkyvän valon pituus
Päivän pituus
Tomorrow will be .
, % of the Moon is Illuminated

Tämän päivän ennätykset

Country Highs Country Lows

Community

WunderPhotos

Upload Photos

1,801,838 photos uploaded!

WunderBlogs® & News

Nearby

Ilmanlaatu

  Ilmanlaatu AQ Index Pollutant
Not available.

Lumensyvyys

Station Depth Korkeus

Maanjäristysaktiivisuus

Paikkakunta Distance Mag. Time & Date
Minimum magnitude displayed is 2.5.

Coastal Water Temperatures

Paikka Lämpötila

Lähimmät sääasemat